Time;durP1;ratioP1;P1;durP2;ratioP2;P2;SDS_P1;SDS_P2;PMS_P1;PMS_P2;Temp;Humidity;BMP_temperature;BMP_pressure;BME280_temperature;BME280_humidity;BME280_pressure;Samples;Min_cycle;Max_cycle;Signal;HPM_P1;HPM_P2
2023/12/12 00:01:52;;;;;;;95.03;38.45;;;;;;;4.47;76.56;94986.91;5080281;28;20052;-84
2023/12/12 00:04:17;;;;;;;82.22;36.15;;;;;;;4.06;76.14;94900.69;5094176;28;20035;-84
2023/12/12 00:06:42;;;;;;;89.45;35.53;;;;;;;4.08;76.60;94911.75;5081861;28;20101;-84
2023/12/12 00:09:08;;;;;;;71.47;31.58;;;;;;;3.96;76.58;94890.84;5075888;28;20016;-84
2023/12/12 00:11:34;;;;;;;86.55;33.00;;;;;;;3.92;76.83;94908.06;5075419;28;20043;-84
2023/12/12 00:13:59;;;;;;;60.90;28.40;;;;;;;4.05;76.72;94914.81;5071011;28;20499;-84
2023/12/12 00:16:25;;;;;;;61.38;27.02;;;;;;;4.30;76.55;94959.06;5091687;28;20038;-84
2023/12/12 00:18:50;;;;;;;64.90;26.45;;;;;;;3.71;76.66;94874.69;5078760;28;20525;-84
2023/12/12 00:21:16;;;;;;;52.67;23.30;;;;;;;3.80;76.31;94910.78;5079567;28;20028;-84
2023/12/12 00:23:41;;;;;;;48.53;21.83;;;;;;;3.77;76.66;94907.84;5083661;28;20039;-84
2023/12/12 00:26:07;;;;;;;45.67;19.73;;;;;;;2.52;76.84;94738.47;5083415;28;20037;-84
2023/12/12 00:28:34;;;;;;;41.22;19.45;;;;;;;2.89;77.09;94809.59;5081598;28;20084;-84
2023/12/12 00:31:00;;;;;;;40.83;19.23;;;;;;;2.74;76.68;94780.53;5062634;28;20557;-84
2023/12/12 00:33:26;;;;;;;47.25;18.80;;;;;;;3.06;76.70;94833.19;5088709;28;20498;-84
2023/12/12 00:35:51;;;;;;;45.17;17.85;;;;;;;3.54;76.28;94900.88;5075407;28;20023;-84
2023/12/12 00:38:17;;;;;;;39.53;18.63;;;;;;;3.68;75.96;94912.66;5056664;28;20111;-84
2023/12/12 00:40:52;;;;;;;43.33;17.17;;;;;;;3.86;75.99;94922.16;5081668;28;20028;-84
2023/12/12 00:43:18;;;;;;;41.53;17.83;;;;;;;4.00;75.89;94947.03;5067606;28;20537;-84
2023/12/12 00:45:44;;;;;;;39.65;15.65;;;;;;;3.99;75.21;94952.53;5076096;28;20040;-84
2023/12/12 00:48:09;;;;;;;37.10;17.15;;;;;;;3.90;75.44;94915.38;5085550;28;20027;-84
2023/12/12 00:50:35;;;;;;;41.47;16.55;;;;;;;3.69;75.45;94902.97;5094843;28;20036;-84
2023/12/12 00:53:00;;;;;;;34.95;15.60;;;;;;;4.06;75.12;94947.91;5078128;28;20024;-85
2023/12/12 00:55:26;;;;;;;40.45;16.48;;;;;;;3.81;75.65;94950.94;5108844;28;20032;-86
2023/12/12 00:57:51;;;;;;;41.50;16.00;;;;;;;3.04;75.70;94830.84;5095097;28;20028;-87
2023/12/12 01:00:17;;;;;;;37.08;16.70;;;;;;;3.92;75.75;94950.06;5092636;28;20012;-87
2023/12/12 01:02:43;;;;;;;31.95;15.77;;;;;;;3.68;75.50;94891.69;5093514;28;20047;-86
2023/12/12 01:05:08;;;;;;;41.33;17.15;;;;;;;4.24;75.25;94960.81;5077886;28;20036;-86
2023/12/12 01:07:34;;;;;;;35.88;17.25;;;;;;;3.52;75.13;94868.06;5112222;28;20058;-87
2023/12/12 01:09:59;;;;;;;34.00;16.50;;;;;;;4.03;75.12;94951.03;5089327;28;20083;-87
2023/12/12 01:12:25;;;;;;;35.33;16.63;;;;;;;3.59;75.50;94887.84;5094375;28;20037;-87
2023/12/12 01:14:50;;;;;;;41.83;18.23;;;;;;;3.90;75.29;94936.38;5090137;28;20041;-87
2023/12/12 01:17:16;;;;;;;48.08;17.48;;;;;;;3.57;75.24;94879.44;5098461;28;20039;-87
2023/12/12 01:19:41;;;;;;;40.97;17.20;;;;;;;4.31;75.01;94995.56;5101723;28;20064;-87
2023/12/12 01:22:07;;;;;;;34.42;17.33;;;;;;;3.88;75.57;94918.28;5076772;28;20027;-86
2023/12/12 01:24:34;;;;;;;41.47;19.58;;;;;;;3.92;75.46;94909.91;5080739;28;20036;-87
2023/12/12 01:27:00;;;;;;;44.03;18.90;;;;;;;4.22;75.25;94971.53;5097038;28;20025;-85
2023/12/12 01:29:25;;;;;;;52.67;22.67;;;;;;;3.42;75.53;94866.09;5108152;28;20066;-87
2023/12/12 01:31:51;;;;;;;44.55;22.27;;;;;;;4.08;76.36;94996.50;5083351;28;20036;-87
2023/12/12 01:34:16;;;;;;;56.13;23.05;;;;;;;3.06;76.08;94833.19;5076801;28;20033;-86
2023/12/12 01:36:42;;;;;;;53.35;25.02;;;;;;;3.45;77.09;94934.56;5078028;28;20058;-87
2023/12/12 01:39:08;;;;;;;49.80;25.00;;;;;;;2.86;77.03;94804.81;5078137;28;20032;-86
2023/12/12 01:41:33;;;;;;;57.28;25.02;;;;;;;2.97;77.42;94842.47;5112383;28;20035;-86
2023/12/12 01:43:59;;;;;;;64.22;24.52;;;;;;;3.64;77.54;94947.47;5044560;22;20038;-79
2023/12/12 01:46:25;;;;;;;58.92;26.48;;;;;;;3.63;77.99;94954.53;5016539;28;20047;-79
2023/12/12 01:48:51;;;;;;;55.40;25.13;;;;;;;3.63;77.93;94930.94;5021122;28;20078;-79
2023/12/12 01:51:17;;;;;;;59.60;26.33;;;;;;;3.88;77.42;94962.88;5029565;28;20034;-79
2023/12/12 01:53:46;;;;;;;64.55;28.38;;;;;;;3.79;77.12;94955.63;5010892;28;20526;-79
2023/12/12 01:56:13;;;;;;;61.97;28.25;;;;;;;3.94;77.12;94969.00;5030362;28;20033;-79
2023/12/12 01:58:42;;;;;;;72.45;31.85;;;;;;;3.97;77.39;94957.22;5027651;28;20094;-79
2023/12/12 02:01:08;;;;;;;68.57;31.77;;;;;;;3.81;77.20;94941.22;5021732;28;20187;-79
2023/12/12 02:03:35;;;;;;;64.10;29.90;;;;;;;3.96;77.48;94969.56;5026437;28;20034;-79
2023/12/12 02:06:01;;;;;;;80.82;32.97;;;;;;;4.10;77.07;94978.72;5017254;28;20034;-79
2023/12/12 02:08:28;;;;;;;63.95;28.63;;;;;;;3.93;76.83;94964.78;5027915;27;20037;-79
2023/12/12 02:10:53;;;;;;;61.97;29.25;;;;;;;3.85;77.01;94973.03;5017218;28;20030;-79
2023/12/12 02:13:19;;;;;;;63.85;27.35;;;;;;;3.91;76.85;94973.91;5030511;28;20388;-79
2023/12/12 02:15:45;;;;;;;61.15;27.80;;;;;;;3.96;76.51;94950.38;5011306;28;20049;-81
2023/12/12 02:18:12;;;;;;;63.67;29.15;;;;;;;3.89;77.15;94967.06;5028537;28;20026;-80
2023/12/12 02:20:37;;;;;;;74.35;28.90;;;;;;;3.98;77.09;94977.97;5010942;28;20018;-80
2023/12/12 02:23:03;;;;;;;70.95;29.30;;;;;;;3.80;76.78;94976.38;5026119;28;20086;-81
2023/12/12 02:25:28;;;;;;;68.65;28.88;;;;;;;3.86;77.08;94972.78;5018482;28;20041;-81
2023/12/12 02:27:55;;;;;;;63.55;28.00;;;;;;;3.42;76.96;94913.28;5026320;28;20026;-80
2023/12/12 02:30:21;;;;;;;70.82;30.25;;;;;;;3.94;76.87;94987.34;5020011;28;20032;-80
2023/12/12 02:32:46;;;;;;;65.57;29.92;;;;;;;4.04;76.92;94990.16;5024703;28;20120;-80
2023/12/12 02:35:12;;;;;;;64.63;30.42;;;;;;;3.98;76.57;94996.34;5014139;28;20030;-80
2023/12/12 02:37:37;;;;;;;72.13;30.50;;;;;;;3.93;76.71;94998.88;5021124;28;20038;-80
2023/12/12 02:40:03;;;;;;;69.88;30.17;;;;;;;3.62;77.30;94960.03;5019961;28;20381;-81
2023/12/12 02:42:29;;;;;;;75.68;29.77;;;;;;;3.89;77.80;94979.41;5023474;28;20049;-80
2023/12/12 02:44:57;;;;;;;81.25;33.85;;;;;;;3.97;77.27;94999.22;5018871;28;20844;-80
2023/12/12 02:47:23;;;;;;;83.43;32.25;;;;;;;3.65;77.64;94985.78;5029996;28;20038;-80
2023/12/12 02:49:49;;;;;;;67.78;32.60;;;;;;;3.68;77.73;94980.84;5015243;28;20034;-80
2023/12/12 02:52:15;;;;;;;74.93;33.72;;;;;;;3.67;78.22;95013.34;5031739;28;20030;-80
2023/12/12 02:54:41;;;;;;;74.35;33.33;;;;;;;3.48;78.90;95009.31;5016609;28;20499;-80
2023/12/12 02:57:07;;;;;;;84.53;33.22;;;;;;;3.63;79.16;95016.69;5029122;28;20035;-80
2023/12/12 02:59:32;;;;;;;83.93;35.33;;;;;;;3.59;78.68;95002.44;5017243;28;20037;-80
2023/12/12 03:01:58;;;;;;;73.25;31.98;;;;;;;3.55;79.68;94986.38;5022313;28;20049;-80
2023/12/12 03:04:23;;;;;;;77.63;32.45;;;;;;;3.75;78.91;94994.63;5020899;28;20036;-80
2023/12/12 03:06:49;;;;;;;82.65;33.40;;;;;;;3.84;79.13;94987.16;5027518;28;20042;-80
2023/12/12 03:09:14;;;;;;;71.40;32.50;;;;;;;3.80;79.21;94988.69;5016876;28;20077;-80
2023/12/12 03:11:40;;;;;;;71.20;31.10;;;;;;;3.79;78.75;94974.78;5007822;28;20407;-80
2023/12/12 03:14:05;;;;;;;74.82;31.95;;;;;;;3.70;78.98;94967.50;5017162;28;20090;-78
2023/12/12 03:16:31;;;;;;;77.93;30.77;;;;;;;3.58;79.28;94957.09;5018342;28;20040;-80
2023/12/12 03:18:57;;;;;;;69.93;29.75;;;;;;;3.59;78.72;94945.53;5029634;28;20576;-80
2023/12/12 03:21:22;;;;;;;67.25;29.63;;;;;;;3.91;78.80;94968.66;5029621;28;20021;-80
2023/12/12 03:23:48;;;;;;;71.68;29.75;;;;;;;3.85;78.73;94958.09;5018136;28;20030;-80
2023/12/12 03:26:13;;;;;;;74.60;32.60;;;;;;;2.35;78.65;94731.59;5081958;22;20060;-80
2023/12/12 03:28:39;;;;;;;66.90;29.95;;;;;;;2.22;78.52;94702.06;5080433;28;20047;-80
2023/12/12 03:31:05;;;;;;;77.05;30.52;;;;;;;3.93;78.72;94979.72;5077514;28;20149;-81
2023/12/12 03:33:31;;;;;;;73.22;32.25;;;;;;;3.78;78.81;94967.13;5075507;28;20028;-79
2023/12/12 03:35:56;;;;;;;65.72;30.42;;;;;;;3.83;79.22;94954.88;5079462;28;20123;-80
2023/12/12 03:38:22;;;;;;;67.70;30.48;;;;;;;3.48;79.53;94930.69;5077040;28;20068;-79
2023/12/12 03:40:47;;;;;;;72.97;31.77;;;;;;;3.64;79.65;94947.47;5089471;28;20031;-80
2023/12/12 03:43:13;;;;;;;73.15;30.10;;;;;;;3.72;79.00;94933.97;5085448;28;20032;-81
2023/12/12 03:45:39;;;;;;;67.40;29.42;;;;;;;3.97;78.99;94981.63;5078936;28;20119;-80
2023/12/12 03:48:05;;;;;;;67.57;29.50;;;;;;;3.96;79.07;94980.06;5083834;28;20094;-80
2023/12/12 03:50:30;;;;;;;66.45;30.13;;;;;;;4.13;78.90;94980.84;5074600;28;20109;-80
2023/12/12 03:52:56;;;;;;;69.03;29.25;;;;;;;3.97;78.84;94993.97;5087599;28;20115;-80
2023/12/12 03:55:23;;;;;;;68.13;31.23;;;;;;;4.06;79.35;95001.19;5083624;28;20036;-79
2023/12/12 03:57:48;;;;;;;69.00;29.95;;;;;;;4.04;78.56;94973.63;5086329;28;20028;-80
2023/12/12 04:00:14;;;;;;;65.30;27.63;;;;;;;3.96;78.59;94963.50;5089926;28;20437;-80
2023/12/12 04:02:40;;;;;;;69.95;28.20;;;;;;;3.86;78.17;94936.06;5078398;28;20028;-80
2023/12/12 04:05:10;;;;;;;63.78;27.63;;;;;;;4.00;78.52;94959.38;5073520;28;20131;-81
2023/12/12 04:07:39;;;;;;;62.90;29.00;;;;;;;4.19;78.19;94979.13;5093500;28;20287;-80
2023/12/12 04:10:06;;;;;;;58.17;27.08;;;;;;;4.20;78.34;94993.81;5090438;28;20479;-79
2023/12/12 04:12:36;;;;;;;61.42;28.08;;;;;;;4.32;78.11;95007.66;5088705;28;20129;-80
2023/12/12 04:15:02;;;;;;;64.65;29.25;;;;;;;3.99;77.92;94949.91;5074769;28;20463;-80
2023/12/12 04:17:28;;;;;;;66.90;28.75;;;;;;;4.29;77.49;95000.25;5073984;28;20051;-79
2023/12/12 04:19:54;;;;;;;70.03;29.20;;;;;;;4.07;77.82;94975.75;5092872;28;20060;-82
2023/12/12 04:22:19;;;;;;;66.22;28.77;;;;;;;4.08;78.18;94982.59;5107013;28;20031;-82
2023/12/12 04:24:45;;;;;;;67.07;27.52;;;;;;;3.69;77.84;94902.97;5095984;28;20070;-82
2023/12/12 04:27:11;;;;;;;64.57;27.85;;;;;;;4.15;77.76;94984.03;5027419;28;20018;-82
2023/12/12 04:29:37;;;;;;;61.30;28.95;;;;;;;4.17;77.70;94978.56;5035045;28;20030;-83
2023/12/12 04:32:04;;;;;;;65.65;27.65;;;;;;;4.51;77.28;95016.88;5098109;28;20055;-82
2023/12/12 04:34:33;;;;;;;71.25;27.33;;;;;;;4.55;77.88;95025.91;5086788;28;20024;-82
2023/12/12 04:36:59;;;;;;;65.00;27.45;;;;;;;3.75;76.93;94891.53;5089802;28;20042;-82
2023/12/12 04:39:26;;;;;;;64.18;28.70;;;;;;;4.54;77.10;95018.25;5097954;28;20066;-82
2023/12/12 04:41:52;;;;;;;65.70;29.42;;;;;;;4.54;76.68;95020.88;5073117;28;20110;-82
2023/12/12 04:44:17;;;;;;;66.82;27.42;;;;;;;4.41;76.14;94992.31;5102416;28;20060;-82
2023/12/12 04:46:43;;;;;;;56.47;26.23;;;;;;;4.52;76.45;95017.69;5100179;28;20053;-82
2023/12/12 04:49:09;;;;;;;63.25;27.80;;;;;;;4.23;76.26;94975.75;5083075;28;20038;-82
2023/12/12 04:51:34;;;;;;;60.40;27.83;;;;;;;4.05;76.38;94951.56;5089275;28;20026;-82
2023/12/12 04:54:00;;;;;;;64.03;27.38;;;;;;;4.23;76.88;95009.88;5046526;22;20045;-79
2023/12/12 04:56:25;;;;;;;63.78;27.45;;;;;;;4.32;77.13;95028.69;5013994;28;20420;-77
2023/12/12 04:58:51;;;;;;;77.57;26.77;;;;;;;4.39;76.64;95033.75;5018785;28;20041;-77
2023/12/12 05:01:17;;;;;;;58.63;24.42;;;;;;;4.33;76.84;95021.59;5003536;28;20507;-78
2023/12/12 05:03:44;;;;;;;57.63;26.67;;;;;;;4.62;76.94;95050.16;5004016;28;20052;-77
2023/12/12 05:06:10;;;;;;;67.07;27.45;;;;;;;4.41;76.34;95010.69;5016206;28;20048;-77
2023/12/12 05:08:35;;;;;;;63.45;28.00;;;;;;;4.30;76.26;94995.81;5007840;28;20073;-77
2023/12/12 05:11:01;;;;;;;56.65;25.42;;;;;;;4.60;76.37;95031.22;5012983;28;20034;-77
2023/12/12 05:13:26;;;;;;;60.00;25.58;;;;;;;4.44;76.51;95044.34;5013344;28;20044;-79
2023/12/12 05:15:52;;;;;;;55.83;23.75;;;;;;;4.20;76.46;95027.94;5037510;28;20451;-79
2023/12/12 05:18:18;;;;;;;52.35;23.48;;;;;;;4.42;76.10;95062.19;5035001;28;20041;-79
2023/12/12 05:20:43;;;;;;;52.70;22.70;;;;;;;4.23;76.19;95017.75;5026766;28;20041;-79
2023/12/12 05:23:11;;;;;;;53.13;23.48;;;;;;;4.32;76.03;95027.88;5007170;28;20052;-79
2023/12/12 05:25:37;;;;;;;55.03;24.10;;;;;;;4.56;76.13;95080.03;5011345;28;20041;-79
2023/12/12 05:28:02;;;;;;;51.15;23.02;;;;;;;4.62;76.02;95078.25;5008018;28;20124;-78
2023/12/12 05:30:28;;;;;;;47.33;24.65;;;;;;;4.31;76.04;95042.03;5025450;28;20076;-79
2023/12/12 05:32:54;;;;;;;46.17;22.67;;;;;;;3.43;76.78;94931.38;4998205;28;20048;-79
2023/12/12 05:35:19;;;;;;;53.42;24.10;;;;;;;4.26;77.25;95029.63;5000745;28;20045;-79
2023/12/12 05:37:45;;;;;;;57.90;24.00;;;;;;;4.12;76.59;94997.63;5013603;28;20041;-79
2023/12/12 05:40:14;;;;;;;62.00;25.48;;;;;;;4.37;77.15;95048.94;5020276;28;20040;-79
2023/12/12 05:42:40;;;;;;;70.07;28.45;;;;;;;4.36;76.91;95036.84;5009061;28;20064;-80
2023/12/12 05:45:07;;;;;;;67.10;29.42;;;;;;;4.30;77.41;95056.97;5028443;22;20064;-82
2023/12/12 05:47:36;;;;;;;72.07;31.27;;;;;;;3.64;78.35;94971.09;5054811;28;20585;-85
2023/12/12 05:50:02;;;;;;;61.70;30.45;;;;;;;2.41;78.32;94778.56;5055934;28;20092;-86
2023/12/12 05:52:29;;;;;;;71.75;34.00;;;;;;;2.67;78.20;94800.81;5045333;28;20063;-86
2023/12/12 05:54:57;;;;;;;61.92;31.27;;;;;;;3.47;78.07;94922.00;5049971;28;20052;-85
2023/12/12 05:57:23;;;;;;;71.80;32.75;;;;;;;3.76;78.16;94977.84;5046689;28;20028;-85
2023/12/12 05:59:51;;;;;;;67.25;31.92;;;;;;;4.34;78.07;95049.44;5041841;28;20345;-85
2023/12/12 06:02:17;;;;;;;83.85;34.25;;;;;;;4.55;77.88;95082.88;5050240;28;20033;-84
2023/12/12 06:04:46;;;;;;;80.72;32.30;;;;;;;4.28;78.00;95030.97;5048822;28;20201;-85
2023/12/12 06:07:12;;;;;;;72.25;32.15;;;;;;;3.32;78.32;94890.28;5046542;28;20628;-82
2023/12/12 06:09:38;;;;;;;73.45;33.22;;;;;;;4.32;77.91;95062.00;5041578;28;20051;-86
2023/12/12 06:12:03;;;;;;;65.18;31.52;;;;;;;3.51;78.12;94921.56;5039565;28;20098;-82
2023/12/12 06:14:29;;;;;;;67.70;30.17;;;;;;;4.09;78.00;95005.97;5040606;28;20036;-84
2023/12/12 06:16:55;;;;;;;63.22;29.92;;;;;;;4.00;78.36;94991.66;5051176;28;20037;-84
2023/12/12 06:19:21;;;;;;;72.88;29.40;;;;;;;4.36;77.76;95032.41;5046405;28;20176;-82
2023/12/12 06:21:51;;;;;;;58.13;27.98;;;;;;;2.92;78.15;94827.44;5032464;28;20039;-86
2023/12/12 06:24:17;;;;;;;61.70;27.42;;;;;;;4.35;78.12;95040.53;5031979;28;20087;-83
2023/12/12 06:26:42;;;;;;;58.05;26.38;;;;;;;4.76;78.06;95081.38;5021899;28;20060;-86
2023/12/12 06:29:09;;;;;;;65.10;29.05;;;;;;;3.62;77.30;94897.09;5034858;28;20115;-84
2023/12/12 06:31:35;;;;;;;49.10;24.20;;;;;;;4.84;77.39;95079.13;5039718;28;20076;-86
2023/12/12 06:34:01;;;;;;;60.80;25.50;;;;;;;4.51;77.38;95024.75;5043473;28;20033;-83
2023/12/12 06:36:26;;;;;;;60.45;26.65;;;;;;;3.00;77.01;94764.22;5044900;28;20037;-82
2023/12/12 06:38:52;;;;;;;59.67;26.45;;;;;;;3.13;76.01;94778.06;5045632;28;20083;-83
2023/12/12 06:41:18;;;;;;;58.13;25.35;;;;;;;4.31;76.21;94965.91;5042477;28;20064;-87
2023/12/12 06:43:43;;;;;;;53.83;24.38;;;;;;;4.25;75.86;94963.19;5050433;28;20536;-84
2023/12/12 06:46:09;;;;;;;51.17;24.15;;;;;;;4.31;76.01;94973.78;5051559;28;20067;-84
2023/12/12 06:48:37;;;;;;;62.92;25.73;;;;;;;4.87;75.85;95051.59;5043139;28;20029;-88
2023/12/12 06:51:03;;;;;;;57.45;25.42;;;;;;;5.14;76.50;95094.56;5066435;28;20355;-86
2023/12/12 06:53:29;;;;;;;68.28;24.05;;;;;;;4.91;76.10;95050.84;5043899;28;20048;-86
2023/12/12 06:55:55;;;;;;;66.82;23.38;;;;;;;5.19;75.83;95117.50;5045038;28;20025;-85
2023/12/12 06:58:22;;;;;;;55.08;23.52;;;;;;;5.26;76.04;95105.00;5040269;28;20061;-86
2023/12/12 07:00:48;;;;;;;57.75;25.33;;;;;;;5.32;75.54;95102.19;5050595;28;20140;-86
2023/12/12 07:03:18;;;;;;;58.40;23.17;;;;;;;0.92;74.77;94396.16;5051942;22;20128;-88
2023/12/12 07:05:52;;;;;;;53.65;23.58;;;;;;;1.45;74.32;94482.03;4993638;28;20031;-89
2023/12/12 07:08:21;;;;;;;54.95;23.63;;;;;;;3.92;74.54;94860.06;4996901;28;20035;-91
2023/12/12 07:10:47;;;;;;;52.13;22.13;;;;;;;2.93;73.52;94682.38;4988694;28;20039;-88
2023/12/12 07:13:13;;;;;;;47.08;22.02;;;;;;;5.42;73.74;95064.69;4977613;28;20034;-88
2023/12/12 07:15:39;;;;;;;54.80;22.10;;;;;;;5.12;73.35;95014.34;4985351;28;20031;-88
2023/12/12 07:18:10;;;;;;;53.40;21.08;;;;;;;5.27;73.11;95046.88;5000271;28;20147;-87
2023/12/12 07:20:39;;;;;;;50.28;22.85;;;;;;;5.73;73.74;95111.38;4997997;28;20026;-88
2023/12/12 07:23:05;;;;;;;63.63;20.70;;;;;;;5.66;72.90;95113.41;4997086;28;20050;-88
2023/12/12 07:25:30;;;;;;;54.92;18.02;;;;;;;5.58;73.42;95110.41;5013869;28;20042;-88
2023/12/12 07:27:56;;;;;;;44.88;18.38;;;;;;;5.53;73.27;95087.47;5010251;28;20080;-88
2023/12/12 07:30:22;;;;;;;44.88;17.80;;;;;;;5.28;72.71;95045.03;4995755;28;20030;-88
2023/12/12 07:32:47;;;;;;;40.47;16.92;;;;;;;4.91;72.39;94995.69;5010836;28;20030;-88
2023/12/12 07:35:13;;;;;;;45.75;16.25;;;;;;;5.33;72.65;95071.44;5000456;28;20022;-88
2023/12/12 07:37:38;;;;;;;45.25;15.73;;;;;;;4.43;72.55;94929.84;5032332;27;20155;-87
2023/12/12 07:40:06;;;;;;;43.78;15.40;;;;;;;5.25;72.37;95017.44;5001065;28;20454;-87
2023/12/12 07:42:31;;;;;;;49.45;17.73;;;;;;;4.68;71.83;94929.41;4995031;28;20027;-88
2023/12/12 07:44:57;;;;;;;44.72;18.23;;;;;;;6.08;71.97;95131.31;5003894;28;20048;-88
2023/12/12 07:47:24;;;;;;;66.03;22.73;;;;;;;5.96;71.74;95110.38;5013663;28;20128;-87
2023/12/12 07:49:49;;;;;;;64.35;23.80;;;;;;;4.85;71.53;94912.56;5038246;27;20026;-87
2023/12/12 07:52:15;;;;;;;53.13;21.98;;;;;;;5.35;71.39;94980.72;4998842;28;20035;-88
2023/12/12 07:54:42;;;;;;;55.38;22.83;;;;;;;6.37;70.92;95121.34;4986915;28;20030;-86
2023/12/12 07:57:08;;;;;;;56.88;20.77;;;;;;;3.26;70.74;94623.91;4997419;28;20704;-86
2023/12/12 07:59:34;;;;;;;53.78;19.98;;;;;;;4.05;70.41;94744.25;5046142;22;20080;-85
2023/12/12 08:02:00;;;;;;;47.63;20.40;;;;;;;5.03;70.30;94872.06;5081392;28;20526;-87
2023/12/12 08:04:26;;;;;;;53.47;19.90;;;;;;;5.75;69.96;95011.16;5080788;28;20068;-86
2023/12/12 08:06:58;;;;;;;48.60;19.38;;;;;;;3.89;69.83;94661.97;5093599;28;20101;-86
2023/12/12 08:09:25;;;;;;;52.15;19.75;;;;;;;6.12;69.43;95004.19;5084629;22;20056;-87
2023/12/12 08:11:51;;;;;;;47.53;19.70;;;;;;;6.28;68.95;95026.19;5057938;28;20087;-87
2023/12/12 08:14:17;;;;;;;42.00;18.27;;;;;;;6.43;68.78;95042.13;5046125;28;20036;-85
2023/12/12 08:16:42;;;;;;;39.33;17.67;;;;;;;7.01;68.95;95114.31;5054936;28;20093;-86
2023/12/12 08:19:09;;;;;;;45.20;16.88;;;;;;;6.90;68.96;95075.72;5038349;28;20747;-85
2023/12/12 08:21:35;;;;;;;44.10;18.63;;;;;;;6.18;68.15;94966.31;5054218;28;20056;-86
2023/12/12 08:24:01;;;;;;;47.05;15.82;;;;;;;7.20;68.42;95114.69;5049845;28;20083;-85
2023/12/12 08:26:27;;;;;;;45.30;17.15;;;;;;;7.15;67.95;95086.44;5048712;28;20051;-86
2023/12/12 08:28:52;;;;;;;44.58;17.77;;;;;;;6.92;67.62;95045.41;5046095;28;20029;-86
2023/12/12 08:31:18;;;;;;;37.78;13.65;;;;;;;6.59;67.70;95014.06;5062186;28;20036;-86
2023/12/12 08:33:43;;;;;;;43.00;13.25;;;;;;;7.14;67.63;95061.13;5052502;28;20031;-87
2023/12/12 08:36:10;;;;;;;35.15;13.00;;;;;;;7.25;67.48;95059.31;5073375;28;20123;-86
2023/12/12 08:38:36;;;;;;;51.47;14.45;;;;;;;7.39;67.60;95107.16;5059271;28;20036;-86
2023/12/12 08:41:03;;;;;;;29.60;12.80;;;;;;;6.91;67.54;95016.66;5068447;28;20037;-86
2023/12/12 08:43:28;;;;;;;34.38;10.38;;;;;;;6.73;66.73;94972.25;5148547;22;20070;-80
2023/12/12 08:45:55;;;;;;;22.85;9.32;;;;;;;7.64;66.38;95100.16;5083024;28;20681;-79
2023/12/12 08:48:21;;;;;;;34.25;12.00;;;;;;;7.54;66.14;95086.16;5082965;28;20092;-79
2023/12/12 08:50:50;;;;;;;34.00;11.45;;;;;;;7.50;65.98;95079.78;5080552;28;20063;-78
2023/12/12 08:53:16;;;;;;;32.17;14.18;;;;;;;7.20;66.76;95025.00;5083827;28;20036;-80
2023/12/12 08:55:42;;;;;;;36.20;14.20;;;;;;;7.84;66.42;95101.34;5103609;28;20455;-80
2023/12/12 08:58:07;;;;;;;37.80;15.05;;;;;;;7.75;66.65;95080.69;5087978;28;20035;-79
2023/12/12 09:00:33;;;;;;;32.67;15.63;;;;;;;7.79;66.58;95075.69;5082874;28;20024;-80
2023/12/12 09:02:59;;;;;;;42.53;17.10;;;;;;;7.63;67.01;95047.63;5063605;28;20028;-81
2023/12/12 09:05:25;;;;;;;38.47;15.32;;;;;;;7.63;66.99;95045.78;5021288;22;20919;-78
2023/12/12 09:07:51;;;;;;;37.15;15.70;;;;;;;8.09;67.66;95104.84;4960580;28;20464;-78
2023/12/12 09:10:17;;;;;;;32.20;14.82;;;;;;;8.06;67.61;95097.47;4993496;28;20037;-77
2023/12/12 09:12:43;;;;;;;37.65;15.68;;;;;;;8.07;68.00;95106.19;5008692;28;20495;-77
2023/12/12 09:15:09;;;;;;;32.17;14.20;;;;;;;8.12;67.44;95109.63;5023115;27;20163;-77
2023/12/12 09:17:35;;;;;;;33.25;13.35;;;;;;;8.11;67.10;95101.94;5014597;28;20141;-76
2023/12/12 09:20:01;;;;;;;36.25;12.77;;;;;;;8.08;68.12;95105.94;5002145;28;20073;-77
2023/12/12 09:22:27;;;;;;;27.00;9.68;;;;;;;7.74;66.39;95068.56;5020755;27;20033;-76
2023/12/12 09:24:53;;;;;;;18.13;6.35;;;;;;;7.87;65.39;95108.72;5009243;28;20345;-77
2023/12/12 09:27:19;;;;;;;14.40;5.45;;;;;;;7.82;65.18;95106.06;5000972;28;20037;-79
2023/12/12 09:29:44;;;;;;;17.52;6.03;;;;;;;7.65;65.23;95080.66;5016281;27;20045;-78
2023/12/12 09:32:11;;;;;;;16.13;5.78;;;;;;;7.80;64.93;95092.31;5008527;28;20033;-78
2023/12/12 09:34:37;;;;;;;18.38;5.40;;;;;;;7.74;65.07;95075.69;5005929;28;20047;-80
2023/12/12 09:37:03;;;;;;;12.00;5.72;;;;;;;7.85;65.23;95098.44;5031075;27;20047;-79
2023/12/12 09:39:28;;;;;;;25.75;5.70;;;;;;;7.74;65.30;95073.03;5017754;27;20503;-78
2023/12/12 09:41:55;;;;;;;16.45;5.60;;;;;;;7.90;65.36;95079.16;5027037;28;20512;-78
2023/12/12 09:44:21;;;;;;;23.67;6.60;;;;;;;8.06;65.47;95094.03;5018624;28;20044;-78
2023/12/12 09:46:49;;;;;;;15.63;5.13;;;;;;;8.05;64.99;95090.59;5018165;27;20279;-78
2023/12/12 09:49:15;;;;;;;16.05;5.50;;;;;;;7.87;64.69;95037.44;5008583;28;20040;-77
2023/12/12 09:51:42;;;;;;;16.30;4.90;;;;;;;8.34;64.05;95082.22;4992326;28;21286;-78
2023/12/12 09:54:10;;;;;;;12.98;4.63;;;;;;;8.43;64.03;95086.75;4982490;27;20757;-78
2023/12/12 09:56:37;;;;;;;15.07;5.53;;;;;;;8.33;64.23;95059.50;5018819;27;20229;-77
2023/12/12 09:59:03;;;;;;;17.75;4.88;;;;;;;8.65;63.73;95081.22;4970590;28;20033;-78
2023/12/12 10:01:31;;;;;;;31.80;5.55;;;;;;;8.69;63.57;95068.28;4985381;28;20041;-78
2023/12/12 10:03:58;;;;;;;17.20;6.07;;;;;;;8.76;63.44;95072.25;4969020;28;20041;-78
2023/12/12 10:06:28;;;;;;;23.63;7.15;;;;;;;8.40;62.96;95012.47;4985644;28;20524;-78
2023/12/12 10:08:54;;;;;;;16.90;6.40;;;;;;;8.71;62.90;95053.72;4983265;28;20109;-78
2023/12/12 10:11:19;;;;;;;21.50;6.65;;;;;;;8.69;62.75;95068.28;4974147;28;20560;-78
2023/12/12 10:13:56;;;;;;;32.17;6.43;;;;;;;8.72;63.28;95083.59;4994964;27;20626;-77
2023/12/12 10:16:25;;;;;;;12.50;5.07;;;;;;;8.16;62.91;95003.47;4996748;28;20526;-77
2023/12/12 10:18:52;;;;;;;14.93;6.15;;;;;;;8.37;63.40;95036.78;5009851;27;20029;-78
2023/12/12 10:21:21;;;;;;;24.17;6.35;;;;;;;8.74;63.30;95079.66;5006873;28;20506;-78
2023/12/12 10:23:51;;;;;;;21.58;5.68;;;;;;;8.71;63.42;95059.00;5029281;28;20481;-78
2023/12/12 10:26:46;;;;;;;19.67;5.57;;;;;;;8.92;63.39;95086.28;5007720;28;20060;-78
2023/12/12 10:29:11;;;;;;;22.08;7.15;;;;;;;9.02;63.28;95098.69;5022369;28;20048;-77
2023/12/12 10:31:37;;;;;;;24.30;6.10;;;;;;;9.00;63.30;95084.94;5000918;28;20053;-78
2023/12/12 10:34:03;;;;;;;17.85;6.57;;;;;;;8.51;62.73;95032.56;5012991;28;20049;-79
2023/12/12 10:36:28;;;;;;;15.20;5.97;;;;;;;8.77;62.65;95060.59;5003613;28;20489;-80
2023/12/12 10:39:12;;;;;;;25.42;5.57;;;;;;;9.05;62.43;95082.28;5004860;28;20393;-81
2023/12/12 10:41:38;;;;;;;20.00;6.95;;;;;;;8.23;62.69;94937.94;5000711;28;20695;-81
2023/12/12 10:44:06;;;;;;;16.48;6.47;;;;;;;8.89;62.63;95042.63;5016152;28;20029;-79
2023/12/12 10:46:36;;;;;;;21.75;7.22;;;;;;;8.83;62.58;95046.34;5016669;27;20475;-80
2023/12/12 10:49:02;;;;;;;18.73;7.85;;;;;;;9.15;62.17;95092.88;5030934;27;20537;-80
2023/12/12 10:51:28;;;;;;;31.58;8.95;;;;;;;8.42;62.71;94979.44;5030733;28;20089;-79
2023/12/12 10:53:55;;;;;;;18.80;7.75;;;;;;;8.90;62.77;95072.50;5019385;28;20033;-79
2023/12/12 10:56:21;;;;;;;22.02;7.43;;;;;;;8.84;62.84;95066.44;5011960;27;20036;-79
2023/12/12 10:58:51;;;;;;;24.70;6.32;;;;;;;8.81;62.89;95056.38;5018943;27;20032;-80
2023/12/12 11:01:17;;;;;;;20.10;7.60;;;;;;;9.24;62.98;95097.34;5029500;28;20044;-82
2023/12/12 11:03:43;;;;;;;21.15;7.20;;;;;;;9.19;62.30;95076.19;4998251;28;20151;-78
2023/12/12 11:06:09;;;;;;;25.70;5.35;;;;;;;8.72;62.68;95002.44;5003805;28;20060;-78
2023/12/12 11:08:35;;;;;;;15.52;4.95;;;;;;;9.12;62.35;95078.31;5008616;28;20180;-79
2023/12/12 11:11:11;;;;;;;13.75;4.68;;;;;;;9.29;62.50;95100.00;5007620;28;20084;-79
2023/12/12 11:13:39;;;;;;;21.42;5.65;;;;;;;8.99;62.24;95052.41;5011772;28;20040;-81
2023/12/12 11:16:07;;;;;;;18.42;6.15;;;;;;;9.41;62.07;95110.28;5020271;28;20539;-78
2023/12/12 11:18:37;;;;;;;21.48;5.55;;;;;;;9.34;62.55;95101.03;5021603;27;20307;-79
2023/12/12 11:21:03;;;;;;;21.48;5.40;;;;;;;9.29;62.55;95100.00;5005182;28;20034;-81
2023/12/12 11:23:55;;;;;;;15.90;5.15;;;;;;;9.25;62.65;95101.56;5053169;27;20184;-83